Time;durP1;ratioP1;P1;durP2;ratioP2;P2;SDS_P1;SDS_P2;PMS_P1;PMS_P2;Temp;Humidity;BMP_temperature;BMP_pressure;BME280_temperature;BME280_humidity;BME280_pressure;Samples;Min_cycle;Max_cycle;Signal;HPM_P1;HPM_P2
2021/10/17 00:02:12;;;;;;;;;;;;;;;18.49;41.18;102092.13;5043926;28;19924;-88
2021/10/17 00:04:38;;;;;;;;;;;;;;;18.87;40.47;102089.78;5046093;28;20388;-87
2021/10/17 00:07:03;;;;;;;;;;;;;;;18.82;40.48;102086.41;5045745;28;19928;-88
2021/10/17 00:09:28;;;;;;;;;;;;;;;18.82;40.50;102083.66;5064258;28;19917;-87
2021/10/17 00:11:54;;;;;;;;;;;;;;;18.20;41.93;102083.81;5045046;28;19970;-89
2021/10/17 00:14:19;;;;;;;;;;;;;;;18.61;41.03;102077.66;5045621;28;19921;-88
2021/10/17 00:16:44;;;;;;;;;;;;;;;18.95;40.27;102075.59;5062477;28;19920;-88
2021/10/17 00:19:09;;;;;;;;;;;;;;;18.68;40.74;102076.31;5061174;28;19921;-87
2021/10/17 00:21:35;;;;;;;;;;;;;;;19.03;40.20;102077.84;5045606;28;20289;-87
2021/10/17 00:24:00;;;;;;;;;;;;;;;19.30;39.31;102070.56;5043758;28;19928;-86
2021/10/17 00:26:25;;;;;;;;;;;;;;;19.09;39.92;102080.19;5046826;28;19921;-90
2021/10/17 00:28:51;;;;;;;;;;;;;;;19.16;39.69;102072.44;5049388;28;19951;-89
2021/10/17 00:31:20;;;;;;;;;;;;;;;18.96;39.96;102074.59;5049207;28;19959;-88
2021/10/17 00:33:45;;;;;;;;;;;;;;;18.94;40.12;102076.56;5050605;28;19917;-88
2021/10/17 00:36:11;;;;;;;;;;;;;;;19.02;39.73;102084.28;5049158;28;19921;-88
2021/10/17 00:38:36;;;;;;;;;;;;;;;19.11;39.85;102076.38;5049650;28;19927;-88
2021/10/17 00:41:02;;;;;;;;;;;;;;;18.47;41.14;102084.00;5049187;28;19928;-89
2021/10/17 00:43:27;;;;;;;;;;;;;;;19.27;39.61;102083.59;5049938;28;19958;-90
2021/10/17 00:45:52;;;;;;;;;;;;;;;19.79;38.63;102074.72;5051829;28;19923;-89
2021/10/17 00:48:18;;;;;;;;;;;;;;;19.41;39.07;102072.59;5048169;28;19917;-89
2021/10/17 00:50:43;;;;;;;;;;;;;;;19.35;39.52;102078.47;5066019;28;19917;-91
2021/10/17 00:53:09;;;;;;;;;;;;;;;19.46;39.34;102078.69;5047736;28;19916;-88
2021/10/17 00:55:34;;;;;;;;;;;;;;;19.41;39.61;102064.34;5049326;28;19964;-89
2021/10/17 00:58:02;;;;;;;;;;;;;;;19.23;39.71;102068.31;5048863;28;19917;-89
2021/10/17 01:00:27;;;;;;;;;;;;;;;18.82;40.61;102071.81;5049828;28;19952;-88
2021/10/17 01:02:53;;;;;;;;;;;;;;;18.87;40.88;102069.69;5048693;28;19924;-88
2021/10/17 01:05:18;;;;;;;;;;;;;;;19.07;40.37;102069.31;5048908;28;19913;-92
2021/10/17 01:07:45;;;;;;;;;;;;;;;18.87;41.08;102065.09;5067395;28;19917;-88
2021/10/17 01:10:10;;;;;;;;;;;;;;;18.97;40.53;102059.91;5049529;28;20281;-88
2021/10/17 01:12:36;;;;;;;;;;;;;;;18.69;41.23;102061.63;5049044;28;19963;-92
2021/10/17 01:15:02;;;;;;;;;;;;;;;18.80;41.16;102054.59;5066158;28;20471;-89
2021/10/17 01:17:28;;;;;;;;;;;;;;;18.24;42.01;102060.75;5049174;28;19972;-90
2021/10/17 01:19:53;;;;;;;;;;;;;;;18.82;41.42;102050.75;5032342;28;20007;-89
2021/10/17 01:22:19;;;;;;;;;;;;;;;19.05;40.90;102045.69;5049341;28;20012;-89
2021/10/17 01:24:45;;;;;;;;;;;;;;;18.78;41.32;102041.84;5048652;28;19920;-88
2021/10/17 01:27:10;;;;;;;;;;;;;;;18.59;41.59;102044.84;5048850;28;19917;-89
2021/10/17 01:29:35;;;;;;;;;;;;;;;18.94;41.09;102043.66;5065836;28;19920;-88
2021/10/17 01:32:01;;;;;;;;;;;;;;;18.61;41.50;102042.03;5066571;28;20401;-88
2021/10/17 01:34:26;;;;;;;;;;;;;;;18.45;42.03;102043.94;5048860;28;19917;-90
2021/10/17 01:36:52;;;;;;;;;;;;;;;18.61;41.44;102039.28;5048726;28;19923;-89
2021/10/17 01:39:18;;;;;;;;;;;;;;;18.57;41.57;102048.69;5048531;28;19966;-89
2021/10/17 01:41:43;;;;;;;;;;;;;;;18.60;41.56;102046.63;5048241;28;19924;-91
2021/10/17 01:44:14;;;;;;;;;;;;;;;18.68;41.68;102046.16;5031612;28;19917;-90
2021/10/17 01:46:39;;;;;;;;;;;;;;;18.68;41.60;102042.53;5064846;28;20007;-87
2021/10/17 01:49:06;;;;;;;;;;;;;;;18.78;41.23;102047.34;5047636;28;19920;-89
2021/10/17 01:51:31;;;;;;;;;;;;;;;19.15;40.73;102044.13;5065920;28;19916;-89
2021/10/17 01:53:57;;;;;;;;;;;;;;;19.23;40.29;102046.38;5065648;28;19970;-89
2021/10/17 01:56:22;;;;;;;;;;;;;;;19.37;40.46;102038.13;5047824;28;19928;-90
2021/10/17 01:58:47;;;;;;;;;;;;;;;18.68;41.83;102043.41;5048839;28;19917;-90
2021/10/17 02:01:12;;;;;;;;;;;;;;;19.03;40.93;102044.91;5048841;28;19963;-88
2021/10/17 02:03:38;;;;;;;;;;;;;;;18.62;41.96;102040.19;5047489;28;19923;-86
2021/10/17 02:06:03;;;;;;;;;;;;;;;18.86;41.53;102038.66;5031964;28;19920;-88
2021/10/17 02:08:29;;;;;;;;;;;;;;;19.51;40.02;102034.47;5047883;28;19924;-88
2021/10/17 02:10:55;;;;;;;;;;;;;;;19.47;40.05;102031.06;5066282;28;20625;-87
2021/10/17 02:13:20;;;;;;;;;;;;;;;18.94;41.06;102028.06;5047872;28;19917;-88
2021/10/17 02:15:46;;;;;;;;;;;;;;;18.31;42.18;102033.84;5047992;28;19915;-89
2021/10/17 02:18:11;;;;;;;;;;;;;;;18.56;41.61;102038.69;5047681;28;19921;-88
2021/10/17 02:20:36;;;;;;;;;;;;;;;18.72;41.56;102036.75;5031186;28;19966;-89
2021/10/17 02:23:04;;;;;;;;;;;;;;;19.16;40.53;102026.69;5047229;28;20003;-88
2021/10/17 02:25:29;;;;;;;;;;;;;;;19.30;40.03;102028.53;5046950;28;19924;-88
2021/10/17 02:27:54;;;;;;;;;;;;;;;19.18;40.46;102034.81;5048552;28;20302;-87
2021/10/17 02:30:20;;;;;;;;;;;;;;;19.17;40.44;102033.91;5048337;28;19916;-89
2021/10/17 02:32:45;;;;;;;;;;;;;;;19.23;40.23;102039.00;5047739;28;19923;-88
2021/10/17 02:35:10;;;;;;;;;;;;;;;19.94;38.95;102030.69;5047483;28;19938;-89
2021/10/17 02:37:35;;;;;;;;;;;;;;;20.18;38.51;102030.88;5047912;28;19978;-88
2021/10/17 02:40:01;;;;;;;;;;;;;;;19.36;39.90;102032.75;5031531;28;20386;-90
2021/10/17 02:42:26;;;;;;;;;;;;;;;18.83;41.30;102043.44;5047481;28;19970;-92
2021/10/17 02:44:51;;;;;;;;;;;;;;;19.19;40.63;102031.06;5048216;28;19942;-91
2021/10/17 02:47:17;;;;;;;;;;;;;;;19.36;40.10;102030.88;5048492;28;20004;-90
2021/10/17 02:49:42;;;;;;;;;;;;;;;19.65;39.51;102026.16;5048448;28;19916;-87
2021/10/17 02:52:07;;;;;;;;;;;;;;;19.98;39.08;102024.03;5048420;28;19917;-89
2021/10/17 02:54:32;;;;;;;;;;;;;;;19.42;39.71;102021.34;5031385;28;19947;-88
2021/10/17 02:56:58;;;;;;;;;;;;;;;19.73;39.59;102022.03;5047375;28;19940;-89
2021/10/17 02:59:23;;;;;;;;;;;;;;;19.23;39.88;102016.19;5048301;28;19913;-91
2021/10/17 03:01:48;;;;;;;;;;;;;;;18.86;40.64;102021.34;5065084;28;19924;-87
2021/10/17 03:04:14;;;;;;;;;;;;;;;18.99;40.35;102007.69;5047842;28;19912;-90
2021/10/17 03:06:39;;;;;;;;;;;;;;;18.93;40.05;102006.22;5047175;28;19917;-87
2021/10/17 03:09:05;;;;;;;;;;;;;;;19.30;39.64;102006.56;5047402;28;19924;-90
2021/10/17 03:11:30;;;;;;;;;;;;;;;19.17;39.69;102002.88;5030678;28;19921;-89
2021/10/17 03:13:56;;;;;;;;;;;;;;;18.64;40.64;101997.09;5046983;28;19921;-88
2021/10/17 03:16:21;;;;;;;;;;;;;;;17.98;41.90;102002.06;5047505;28;19921;-89
2021/10/17 03:18:46;;;;;;;;;;;;;;;18.15;41.94;102001.94;5046932;28;19917;-88
2021/10/17 03:21:11;;;;;;;;;;;;;;;18.84;40.53;101993.06;5046565;28;19947;-88
2021/10/17 03:23:37;;;;;;;;;;;;;;;18.69;40.72;102006.81;5047449;28;19924;-88
2021/10/17 03:26:02;;;;;;;;;;;;;;;17.79;42.32;102000.41;5047694;28;20050;-88
2021/10/17 03:28:27;;;;;;;;;;;;;;;18.02;42.10;101996.31;5047512;28;19928;-88
2021/10/17 03:30:54;;;;;;;;;;;;;;;17.99;42.42;101995.63;5047122;28;19927;-88
2021/10/17 03:33:20;;;;;;;;;;;;;;;18.57;41.16;102002.09;5047800;28;19963;-89
2021/10/17 03:35:45;;;;;;;;;;;;;;;18.55;41.05;101984.84;5047138;28;20329;-87
2021/10/17 03:38:10;;;;;;;;;;;;;;;18.31;41.75;101995.50;5050986;28;19952;-89
2021/10/17 03:40:36;;;;;;;;;;;;;;;18.61;41.27;101998.16;5051959;28;20426;-87
2021/10/17 03:43:01;;;;;;;;;;;;;;;19.08;39.98;101991.53;5050675;28;20402;-88
2021/10/17 03:45:29;;;;;;;;;;;;;;;18.63;40.70;101989.84;5050889;28;19988;-88
2021/10/17 03:47:54;;;;;;;;;;;;;;;18.67;41.00;101997.78;5050535;28;19916;-89
2021/10/17 03:50:19;;;;;;;;;;;;;;;19.50;39.35;101993.38;5050063;28;19917;-88
2021/10/17 03:52:44;;;;;;;;;;;;;;;19.30;39.70;101987.38;5068821;28;19924;-88
2021/10/17 03:55:10;;;;;;;;;;;;;;;18.64;40.75;101986.13;5051240;28;20014;-89
2021/10/17 03:57:35;;;;;;;;;;;;;;;18.35;41.52;101995.22;5050776;28;20434;-88
2021/10/17 04:00:00;;;;;;;;;;;;;;;18.27;42.00;101993.91;5050109;28;19924;-89
2021/10/17 04:02:26;;;;;;;;;;;;;;;17.88;42.57;101993.50;5050567;28;19917;-90
2021/10/17 04:04:51;;;;;;;;;;;;;;;18.30;41.62;101983.66;5048862;28;19972;-88
2021/10/17 04:07:16;;;;;;;;;;;;;;;17.92;42.62;101984.16;5048579;28;19966;-89
2021/10/17 04:09:42;;;;;;;;;;;;;;;18.00;42.59;101980.97;5049160;28;19943;-90
2021/10/17 04:12:07;;;;;;;;;;;;;;;18.13;42.54;101981.97;5048727;28;19917;-89
2021/10/17 04:14:32;;;;;;;;;;;;;;;17.87;43.14;101978.94;5049239;28;19917;-88
2021/10/17 04:16:57;;;;;;;;;;;;;;;17.61;43.54;101979.59;5048763;28;20003;-88
2021/10/17 04:19:23;;;;;;;;;;;;;;;17.68;43.69;101979.16;5050256;28;19917;-87
2021/10/17 04:21:48;;;;;;;;;;;;;;;18.00;42.77;101976.34;5049451;28;19923;-87
2021/10/17 04:24:13;;;;;;;;;;;;;;;17.88;43.09;101977.06;5049402;28;19924;-89
2021/10/17 04:26:38;;;;;;;;;;;;;;;17.22;44.22;101990.03;5033682;28;19975;-88
2021/10/17 04:29:04;;;;;;;;;;;;;;;17.30;44.42;101975.91;5050739;28;19924;-87
2021/10/17 04:31:29;;;;;;;;;;;;;;;17.11;44.71;101977.00;5050437;28;19944;-88
2021/10/17 04:33:54;;;;;;;;;;;;;;;17.52;44.05;101978.28;5067295;28;19972;-88
2021/10/17 04:36:20;;;;;;;;;;;;;;;17.51;43.50;101979.25;5049974;28;19923;-87
2021/10/17 04:38:45;;;;;;;;;;;;;;;17.58;43.90;101985.25;5049852;28;19917;-88
2021/10/17 04:41:12;;;;;;;;;;;;;;;17.29;44.38;101982.38;5050065;28;19917;-90
2021/10/17 04:43:37;;;;;;;;;;;;;;;17.73;43.76;101978.00;5050238;28;19946;-88
2021/10/17 04:46:02;;;;;;;;;;;;;;;17.47;44.12;101974.97;5050130;28;19920;-89
2021/10/17 04:48:28;;;;;;;;;;;;;;;17.88;43.17;101979.81;5065936;28;19917;-88
2021/10/17 04:50:53;;;;;;;;;;;;;;;17.67;43.24;101981.97;5049611;28;19900;-90
2021/10/17 04:53:18;;;;;;;;;;;;;;;17.96;43.10;101988.47;5048993;28;19917;-89
2021/10/17 04:55:44;;;;;;;;;;;;;;;17.89;43.22;101992.56;5066070;28;19927;-88
2021/10/17 04:58:09;;;;;;;;;;;;;;;18.39;41.84;101998.66;5048497;28;19969;-89
2021/10/17 05:00:38;;;;;;;;;;;;;;;18.27;42.20;101985.69;5048956;28;19917;-88
2021/10/17 05:03:04;;;;;;;;;;;;;;;17.92;43.00;101981.44;5049187;28;19917;-87
2021/10/17 05:05:29;;;;;;;;;;;;;;;17.44;43.91;101983.34;5048375;28;19947;-90
2021/10/17 05:07:54;;;;;;;;;;;;;;;18.03;43.21;101992.59;5066585;28;19963;-88
2021/10/17 05:10:20;;;;;;;;;;;;;;;17.85;43.66;101989.06;5048975;28;19917;-89
2021/10/17 05:12:45;;;;;;;;;;;;;;;17.79;43.21;101989.44;5066322;28;19947;-85
2021/10/17 05:15:10;;;;;;;;;;;;;;;17.93;43.35;101996.00;5047877;28;19905;-88
2021/10/17 05:17:35;;;;;;;;;;;;;;;18.12;42.89;101993.03;5049252;28;20011;-90
2021/10/17 05:20:01;;;;;;;;;;;;;;;18.22;42.62;101994.19;5048794;28;19994;-85
2021/10/17 05:22:32;;;;;;;;;;;;;;;18.05;42.89;101984.28;5066667;28;19917;-89
2021/10/17 05:24:57;;;;;;;;;;;;;;;17.88;43.37;101993.50;5047424;28;19921;-87
2021/10/17 05:27:22;;;;;;;;;;;;;;;17.88;43.10;101993.50;5047912;28;19939;-89
2021/10/17 05:29:53;;;;;;;;;;;;;;;18.35;42.34;101999.81;5066330;28;19920;-87
2021/10/17 05:32:20;;;;;;;;;;;;;;;18.44;42.55;101998.38;5048722;28;20003;-85
2021/10/17 05:34:45;;;;;;;;;;;;;;;18.57;42.15;102000.22;5048119;28;19958;-88
2021/10/17 05:37:11;;;;;;;;;;;;;;;18.28;42.56;101991.06;5048705;28;19986;-86
2021/10/17 05:39:36;;;;;;;;;;;;;;;18.15;42.70;101998.31;5048266;28;19917;-86
2021/10/17 05:42:03;;;;;;;;;;;;;;;18.23;42.63;101998.72;5047289;28;19921;-91
2021/10/17 05:47:22;;;;;;;;;;;;;;;18.38;42.46;102005.97;5050351;28;19920;-89
2021/10/17 05:49:49;;;;;;;;;;;;;;;18.06;42.87;101997.88;5042333;28;19942;-89
2021/10/17 05:52:14;;;;;;;;;;;;;;;18.49;42.28;102009.91;5041870;28;19960;-89
2021/10/17 05:54:40;;;;;;;;;;;;;;;18.35;42.65;102003.41;5043679;28;19925;-90
2021/10/17 05:57:06;;;;;;;;;;;;;;;18.73;41.49;102000.13;5043805;28;19923;-89
2021/10/17 05:59:32;;;;;;;;;;;;;;;18.81;41.16;102002.41;5043585;28;19920;-88
2021/10/17 06:01:57;;;;;;;;;;;;;;;18.14;42.79;102010.25;5029488;28;19928;-90
2021/10/17 06:04:22;;;;;;;;;;;;;;;18.55;41.80;102009.53;5043909;28;19923;-91
2021/10/17 06:06:47;;;;;;;;;;;;;;;18.59;41.98;102016.56;5061498;28;19939;-88
2021/10/17 06:09:13;;;;;;;;;;;;;;;17.98;43.22;102016.66;5045012;28;19917;-91
2021/10/17 06:11:42;;;;;;;;;;;;;;;19.00;41.20;102012.22;5043334;28;19924;-88
2021/10/17 06:14:08;;;;;;;;;;;;;;;19.34;40.36;102013.63;5059199;28;19970;-89
2021/10/17 06:16:34;;;;;;;;;;;;;;;19.59;39.75;102017.47;5038165;28;19917;-84
2021/10/17 06:18:59;;;;;;;;;;;;;;;19.07;40.80;102022.69;5039870;28;19917;-87
2021/10/17 06:21:24;;;;;;;;;;;;;;;18.44;42.08;102025.75;5040395;28;19916;-86
2021/10/17 06:23:50;;;;;;;;;;;;;;;18.11;43.00;102029.59;5041211;28;19928;-88
2021/10/17 06:26:18;;;;;;;;;;;;;;;18.30;42.34;102030.25;5040981;28;19924;-89
2021/10/17 06:28:43;;;;;;;;;;;;;;;17.93;43.12;102026.09;5042436;28;19901;-85
2021/10/17 06:31:08;;;;;;;;;;;;;;;18.09;42.92;102035.16;5040394;28;20361;-88
2021/10/17 06:33:33;;;;;;;;;;;;;;;18.45;42.16;102033.00;5038916;28;20364;-86
2021/10/17 06:35:59;;;;;;;;;;;;;;;18.78;41.05;102032.72;5039681;28;19917;-86
2021/10/17 06:38:24;;;;;;;;;;;;;;;18.54;41.55;102032.41;5040667;28;19916;-86
2021/10/17 06:40:49;;;;;;;;;;;;;;;18.88;40.94;102033.94;5041288;28;19929;-88
2021/10/17 06:43:14;;;;;;;;;;;;;;;19.68;39.73;102032.44;5042941;28;20544;-86
2021/10/17 06:45:44;;;;;;;;;;;;;;;18.37;42.06;102037.09;5040854;28;19953;-89
2021/10/17 06:48:11;;;;;;;;;;;;;;;18.50;41.50;102034.47;5039943;28;20011;-86
2021/10/17 06:50:37;;;;;;;;;;;;;;;19.07;40.71;102032.78;5056992;28;19959;-86
2021/10/17 06:53:02;;;;;;;;;;;;;;;18.32;42.62;102032.88;5038219;28;19928;-85
2021/10/17 06:55:27;;;;;;;;;;;;;;;18.87;41.27;102034.03;5039374;28;19927;-85
2021/10/17 06:57:52;;;;;;;;;;;;;;;18.60;42.14;102034.78;5038918;28;19917;-85
2021/10/17 07:00:18;;;;;;;;;;;;;;;18.52;41.64;102035.25;5038474;28;20357;-85
2021/10/17 07:02:43;;;;;;;;;;;;;;;18.36;42.89;102035.34;5055285;28;19921;-85
2021/10/17 07:05:08;;;;;;;;;;;;;;;18.68;42.06;102032.44;5038649;28;19917;-86
2021/10/17 07:07:33;;;;;;;;;;;;;;;18.49;42.34;102031.81;5056271;28;19967;-82
2021/10/17 07:09:59;;;;;;;;;;;;;;;19.03;41.18;102023.84;5038636;28;19975;-87
2021/10/17 07:12:24;;;;;;;;;;;;;;;19.19;40.96;102033.81;5041256;28;19921;-86
2021/10/17 07:14:52;;;;;;;;;;;;;;;19.40;40.25;102035.19;5041711;28;20012;-86
2021/10/17 07:17:19;;;;;;;;;;;;;;;19.30;40.64;102034.00;5041319;28;19921;-85
2021/10/17 07:19:44;;;;;;;;;;;;;;;19.23;40.77;102032.66;5058305;28;20298;-85
2021/10/17 07:22:09;;;;;;;;;;;;;;;19.01;41.48;102039.53;5041125;28;19916;-85
2021/10/17 07:24:34;;;;;;;;;;;;;;;18.88;41.51;102038.56;5058012;28;19932;-83
2021/10/17 07:26:59;;;;;;;;;;;;;;;18.74;41.97;102040.28;5039376;28;19917;-83
2021/10/17 07:29:25;;;;;;;;;;;;;;;18.72;41.67;102044.97;5059578;28;19956;-86
2021/10/17 07:31:50;;;;;;;;;;;;;;;18.08;43.53;102041.59;5043821;28;19923;-89
2021/10/17 07:34:16;;;;;;;;;;;;;;;18.45;42.68;102041.22;5042170;28;19917;-87
2021/10/17 07:36:41;;;;;;;;;;;;;;;18.24;43.29;102041.56;5042520;28;20404;-93
2021/10/17 07:39:06;;;;;;;;;;;;;;;18.28;43.29;102045.00;5044006;28;19917;-87
2021/10/17 07:41:31;;;;;;;;;;;;;;;18.14;43.68;102048.59;5043088;28;19936;-89
2021/10/17 07:43:57;;;;;;;;;;;;;;;18.21;44.09;102049.97;5041626;28;19924;-87
2021/10/17 07:46:22;;;;;;;;;;;;;;;18.43;43.44;102049.53;5060134;28;20011;-88
2021/10/17 07:48:47;;;;;;;;;;;;;;;18.19;43.39;102051.91;5043546;28;19916;-86
2021/10/17 07:51:12;;;;;;;;;;;;;;;18.09;43.86;102057.06;5041793;28;19924;-86
2021/10/17 07:53:38;;;;;;;;;;;;;;;18.62;43.04;102049.28;5044076;28;19986;-88
2021/10/17 07:56:03;;;;;;;;;;;;;;;18.55;43.11;102054.25;5044701;28;19920;-87
2021/10/17 07:58:28;;;;;;;;;;;;;;;18.83;42.73;102044.31;5045545;28;19921;-88
2021/10/17 08:00:53;;;;;;;;;;;;;;;18.42;43.40;102054.13;5061782;28;19916;-86
2021/10/17 08:03:29;;;;;;;;;;;;;;;18.66;42.92;102058.19;5060365;28;19917;-89
2021/10/17 08:05:54;;;;;;;;;;;;;;;19.00;42.02;102053.34;5043145;28;19923;-85
2021/10/17 08:08:19;;;;;;;;;;;;;;;18.38;43.25;102055.28;5042594;28;19981;-88
2021/10/17 08:10:44;;;;;;;;;;;;;;;18.72;42.64;102061.44;5043599;28;19924;-89
2021/10/17 08:13:09;;;;;;;;;;;;;;;17.67;44.82;102056.75;5043286;28;19917;-86
2021/10/17 08:15:35;;;;;;;;;;;;;;;18.41;43.58;102051.50;5043506;28;19939;-87
2021/10/17 08:18:00;;;;;;;;;;;;;;;18.49;43.33;102056.50;5043624;28;20028;-84
2021/10/17 08:20:25;;;;;;;;;;;;;;;18.72;42.58;102060.53;5040823;28;20297;-85
2021/10/17 08:22:50;;;;;;;;;;;;;;;18.91;42.69;102063.91;5040964;28;19917;-83
2021/10/17 08:25:16;;;;;;;;;;;;;;;18.59;43.00;102052.22;5040882;28;19959;-86
2021/10/17 08:27:41;;;;;;;;;;;;;;;19.79;40.87;102044.50;5040544;28;20250;-85
2021/10/17 08:30:08;;;;;;;;;;;;;;;19.44;41.00;102049.56;5042291;28;19966;-87
2021/10/17 08:32:33;;;;;;;;;;;;;;;18.73;42.58;102054.94;5042806;28;19923;-90
2021/10/17 08:34:59;;;;;;;;;;;;;;;19.10;42.08;102047.16;5062441;28;19952;-86
2021/10/17 08:37:24;;;;;;;;;;;;;;;19.20;41.87;102063.03;5041009;28;20011;-85
2021/10/17 08:39:50;;;;;;;;;;;;;;;19.52;41.38;102060.03;5059656;28;19970;-84
2021/10/17 08:42:15;;;;;;;;;;;;;;;19.75;41.13;102056.66;5042349;28;20008;-88
2021/10/17 08:44:41;;;;;;;;;;;;;;;19.32;42.10;102054.00;5041802;28;19917;-86
2021/10/17 08:47:06;;;;;;;;;;;;;;;19.49;41.45;102050.16;5059682;28;19984;-86
2021/10/17 08:49:33;;;;;;;;;;;;;;;19.46;41.46;102051.22;5042276;28;19925;-87
2021/10/17 08:51:58;;;;;;;;;;;;;;;19.04;42.01;102054.91;5041752;28;19916;-87
2021/10/17 08:54:23;;;;;;;;;;;;;;;19.74;41.02;102054.88;5040172;28;19933;-85
2021/10/17 08:56:49;;;;;;;;;;;;;;;19.46;41.42;102051.22;5041179;28;19916;-87
2021/10/17 08:59:14;;;;;;;;;;;;;;;19.96;40.16;102043.34;5040357;28;19913;-85
2021/10/17 09:01:39;;;;;;;;;;;;;;;19.61;40.97;102048.44;5044068;28;19924;-90
2021/10/17 09:04:10;;;;;;;;;;;;;;;19.25;41.50;102044.41;5041566;28;19917;-87
2021/10/17 09:06:37;;;;;;;;;;;;;;;19.38;40.99;102049.97;5042108;28;19920;-86
2021/10/17 09:09:05;;;;;;;;;;;;;;;19.71;40.35;102056.94;5043571;28;19943;-88
2021/10/17 09:11:34;;;;;;;;;;;;;;;19.96;40.12;102047.97;5042615;28;19921;-88
2021/10/17 09:14:03;;;;;;;;;;;;;;;19.54;40.24;102044.38;5043620;28;20046;-90
2021/10/17 09:16:29;;;;;;;;;;;;;;;19.88;40.10;102044.84;5042810;28;19966;-86
2021/10/17 09:19:05;;;;;;;;;;;;;;;20.21;38.78;102044.41;5044007;28;20439;-88
2021/10/17 09:21:30;;;;;;;;;;;;;;;20.00;39.33;102041.25;5042828;28;20489;-87
2021/10/17 09:23:55;;;;;;;;;;;;;;;19.34;39.98;102052.03;5042194;28;19975;-87
2021/10/17 09:26:21;;;;;;;;;;;;;;;19.35;40.49;102052.91;5060515;28;19900;-87
2021/10/17 09:28:48;;;;;;;;;;;;;;;19.36;40.15;102057.44;5042690;28;19912;-86
2021/10/17 09:31:15;;;;;;;;;;;;;;;20.07;39.37;102056.34;5059267;28;20030;-87
2021/10/17 09:33:44;;;;;;;;;;;;;;;20.31;38.72;102058.41;5055572;28;19944;-87
2021/10/17 09:36:17;;;;;;;;;;;;;;;19.70;39.78;102056.09;5040193;28;19917;-88
2021/10/17 09:38:44;;;;;;;;;;;;;;;19.74;39.88;102060.34;5039619;28;19921;-87
2021/10/17 09:41:37;;;;;;;;;;;;;;;20.36;39.02;102053.44;5031473;28;19921;-88
2021/10/17 09:44:03;;;;;;;;;;;;;;;19.45;40.83;102057.69;4990745;28;19921;-87
2021/10/17 09:46:29;;;;;;;;;;;;;;;19.82;39.15;102054.38;5020610;28;19918;-89
2021/10/17 09:48:55;;;;;;;;;;;;;;;20.76;37.83;102053.41;5038375;28;19971;-87
2021/10/17 09:51:26;;;;;;;;;;;;;;;20.02;38.87;102058.53;5038509;28;19917;-88
2021/10/17 09:53:52;;;;;;;;;;;;;;;19.56;39.64;102062.47;5036327;28;19956;-88
2021/10/17 09:56:31;;;;;;;;;;;;;;;19.29;39.75;102059.69;5037073;28;19920;-83
2021/10/17 09:58:57;;;;;;;;;;;;;;;18.83;41.38;102066.22;5035902;28;19917;-84
2021/10/17 10:01:24;;;;;;;;;;;;;;;19.55;39.71;102057.97;5034908;28;19943;-84
2021/10/17 10:03:50;;;;;;;;;;;;;;;19.60;39.47;102064.03;5035636;28;19917;-86
2021/10/17 10:06:16;;;;;;;;;;;;;;;20.08;39.01;102058.13;5037675;28;19921;-84
2021/10/17 10:08:42;;;;;;;;;;;;;;;19.82;38.77;102069.00;5055230;28;19917;-86
2021/10/17 10:11:08;;;;;;;;;;;;;;;20.80;37.66;102051.31;5037815;28;19917;-86
2021/10/17 10:13:34;;;;;;;;;;;;;;;20.10;38.34;102050.63;5037222;28;19923;-82
2021/10/17 10:16:00;;;;;;;;;;;;;;;20.89;37.65;102054.28;5036670;28;19917;-84
2021/10/17 10:18:27;;;;;;;;;;;;;;;21.18;36.93;102054.03;5037464;28;19915;-85
2021/10/17 10:20:52;;;;;;;;;;;;;;;21.02;36.10;102056.16;5036678;28;19920;-82
2021/10/17 10:23:18;;;;;;;;;;;;;;;20.73;37.19;102056.38;5036460;28;19932;-87
2021/10/17 10:25:43;;;;;;;;;;;;;;;21.58;35.80;102056.59;5037741;28;19963;-85
2021/10/17 10:28:12;;;;;;;;;;;;;;;21.00;36.14;102049.84;5038185;28;19979;-84
2021/10/17 10:30:39;;;;;;;;;;;;;;;20.30;36.89;102056.63;5055246;28;19924;-87
2021/10/17 10:33:12;;;;;;;;;;;;;;;20.29;37.09;102050.25;5038744;28;19979;-83
2021/10/17 10:36:00;;;;;;;;;;;;;;;21.23;35.04;102051.81;5039021;28;19923;-87
2021/10/17 10:38:44;;;;;;;;;;;;;;;20.73;35.70;102053.63;5038367;28;19913;-86
2021/10/17 10:41:16;;;;;;;;;;;;;;;21.15;34.87;102054.28;5053193;28;20302;-85
2021/10/17 10:43:41;;;;;;;;;;;;;;;21.62;34.50;102049.00;5054925;28;19924;-89
2021/10/17 10:46:07;;;;;;;;;;;;;;;20.62;36.59;102050.72;5037920;28;19917;-88
2021/10/17 10:48:44;;;;;;;;;;;;;;;20.96;36.11;102051.09;5039620;28;19921;-85
2021/10/17 10:51:09;;;;;;;;;;;;;;;21.85;35.06;102041.72;5040084;28;19943;-85
2021/10/17 10:53:47;;;;;;;;;;;;;;;21.12;36.36;102048.09;5037151;28;19925;-86
2021/10/17 10:56:32;;;;;;;;;;;;;;;21.88;35.51;102041.50;5036438;28;19986;-86
2021/10/17 10:58:59;;;;;;;;;;;;;;;21.25;36.07;102043.44;5037440;28;19987;-85
2021/10/17 11:02:18;;;;;;;;;;;;;;;21.28;36.36;102050.59;5037231;28;19923;-85
2021/10/17 11:04:46;;;;;;;;;;;;;;;20.82;36.60;102063.97;4995756;28;19921;-83
2021/10/17 11:07:22;;;;;;;;;;;;;;;21.23;36.00;102061.97;5013285;28;19914;-85
2021/10/17 11:09:51;;;;;;;;;;;;;;;21.08;36.48;102058.44;5022715;28;20424;-85
2021/10/17 11:12:35;;;;;;;;;;;;;;;21.02;36.15;102054.28;5032241;28;20333;-85
2021/10/17 11:15:01;;;;;;;;;;;;;;;21.35;35.67;102050.03;5052436;28;20011;-86
2021/10/17 11:17:28;;;;;;;;;;;;;;;20.80;36.18;102052.19;5055953;28;19920;-83
2021/10/17 11:19:54;;;;;;;;;;;;;;;21.30;36.04;102051.34;5037121;28;19921;-84
2021/10/17 11:22:19;;;;;;;;;;;;;;;21.39;35.80;102050.66;5037038;28;19970;-84
2021/10/17 11:24:54;;;;;;;;;;;;;;;20.86;37.17;102040.75;5036682;28;19921;-85
2021/10/17 11:27:20;;;;;;;;;;;;;;;21.03;36.84;102035.88;5040267;28;19921;-83
2021/10/17 11:29:46;;;;;;;;;;;;;;;21.51;36.57;102037.91;5054566;28;20336;-86
2021/10/17 11:32:18;;;;;;;;;;;;;;;21.38;36.39;102032.41;5038965;28;19921;-87
2021/10/17 11:34:57;;;;;;;;;;;;;;;21.16;37.05;102034.00;5039698;28;19967;-89
2021/10/17 11:37:23;;;;;;;;;;;;;;;20.46;38.43;102038.06;5033501;28;19921;-87
2021/10/17 11:39:55;;;;;;;;;;;;;;;20.99;38.11;102039.88;5038631;28;19956;-87
2021/10/17 11:42:22;;;;;;;;;;;;;;;21.00;37.17;102039.75;5038651;28;20378;-85
2021/10/17 11:44:50;;;;;;;;;;;;;;;21.56;36.98;102033.81;5040412;28;19925;-85
2021/10/17 11:47:18;;;;;;;;;;;;;;;21.15;37.38;102032.25;5038469;28;19928;-86
2021/10/17 11:49:43;;;;;;;;;;;;;;;20.86;38.38;102032.50;5038944;28;19983;-85
2021/10/17 11:52:12;;;;;;;;;;;;;;;21.37;37.51;102042.53;5055092;28;19917;-88
2021/10/17 11:54:47;;;;;;;;;;;;;;;21.32;38.05;102035.63;5037023;28;20013;-83
2021/10/17 11:57:25;;;;;;;;;;;;;;;21.77;37.21;102031.31;5028946;28;19928;-86
2021/10/17 12:00:17;;;;;;;;;;;;;;;20.97;38.05;102026.22;5058368;28;19916;-86
2021/10/17 12:02:42;;;;;;;;;;;;;;;21.51;37.12;102019.50;5040579;28;19955;-87
2021/10/17 12:05:16;;;;;;;;;;;;;;;20.53;38.51;102024.75;5042219;28;20386;-87
2021/10/17 12:07:42;;;;;;;;;;;;;;;20.64;38.70;102019.38;5040863;28;19917;-85
2021/10/17 12:10:08;;;;;;;;;;;;;;;20.59;38.84;102013.31;5058058;28;19916;-85
2021/10/17 12:12:38;;;;;;;;;;;;;;;20.50;38.16;102014.88;5039942;28;19923;-89
2021/10/17 12:15:04;;;;;;;;;;;;;;;20.64;38.21;102010.28;5042284;28;19923;-84
2021/10/17 12:17:29;;;;;;;;;;;;;;;20.74;38.53;102010.50;5041698;28;19913;-86
2021/10/17 12:20:16;;;;;;;;;;;;;;;20.57;38.60;102017.19;5040138;28;19924;-85
2021/10/17 12:22:46;;;;;;;;;;;;;;;20.65;37.91;102014.75;5060786;28;19913;-88
2021/10/17 12:25:11;;;;;;;;;;;;;;;20.95;37.99;102011.69;5043380;28;19925;-89
2021/10/17 12:27:38;;;;;;;;;;;;;;;21.84;36.73;102012.41;5062047;28;19920;-90
2021/10/17 12:30:09;;;;;;;;;;;;;;;21.00;37.33;102023.25;5061078;28;19916;-89
2021/10/17 12:32:41;;;;;;;;;;;;;;;21.22;37.30;102017.03;5041386;28;19983;-87
2021/10/17 12:35:25;;;;;;;;;;;;;;;21.14;37.60;102002.97;5040509;28;19917;-86
2021/10/17 12:37:51;;;;;;;;;;;;;;;21.24;37.48;102004.03;5057809;28;20003;-87